Time;durP1;ratioP1;P1;durP2;ratioP2;P2;SDS_P1;SDS_P2;PMS_P1;PMS_P2;Temp;Humidity;BMP_temperature;BMP_pressure;BME280_temperature;BME280_humidity;BME280_pressure;Samples;Min_cycle;Max_cycle;Signal;HPM_P1;HPM_P2
2023/08/03 00:02:07;;;;;;;12.02;5.13;;;;;;;;;;5022892;28;20512;-60
2023/08/03 00:05:02;;;;;;;8.23;4.93;;;;;;;;;;5027594;28;20060;-72
2023/08/03 00:07:56;;;;;;;8.68;4.88;;;;;;;;;;5026945;28;20049;-71
2023/08/03 00:10:50;;;;;;;8.18;4.70;;;;;;;;;;5020492;28;20057;-70
2023/08/03 00:13:44;;;;;;;9.88;4.75;;;;;;;;;;5020737;28;20041;-54
2023/08/03 00:16:38;;;;;;;9.77;4.80;;;;;;;;;;5025936;28;20567;-60
2023/08/03 00:19:26;;;;;;;7.60;4.60;;;;;;;;;;5028133;28;20053;-69
2023/08/03 00:22:19;;;;;;;8.52;4.75;;;;;;;;;;5028344;28;20107;-70
2023/08/03 00:25:06;;;;;;;7.88;4.97;;;;;;;;;;5027701;28;20053;-71
2023/08/03 00:28:00;;;;;;;10.15;5.22;;;;;;;;;;5027183;28;20049;-71
2023/08/03 00:30:47;;;;;;;8.23;4.82;;;;;;;;;;5026232;28;20049;-70
2023/08/03 00:33:41;;;;;;;6.10;5.13;;;;;;;;;;5021991;28;20071;-71
2023/08/03 00:36:28;;;;;;;12.50;5.03;;;;;;;;;;5024906;28;20594;-70
2023/08/03 00:39:23;;;;;;;9.90;5.22;;;;;;;;;;5025217;28;20053;-69
2023/08/03 00:42:09;;;;;;;7.57;4.68;;;;;;;;;;5025443;28;20060;-60
2023/08/03 00:45:11;;;;;;;6.70;4.80;;;;;;;;;;5025625;28;20566;-71
2023/08/03 00:48:04;;;;;;;9.52;4.70;;;;;;;;;;5027792;28;20450;-51
2023/08/03 00:50:57;;;;;;;8.23;5.20;;;;;;;;;;5022696;28;20455;-55
2023/08/03 00:53:46;;;;;;;6.50;4.30;;;;;;;;;;5025102;28;20053;-53
2023/08/03 00:56:38;;;;;;;7.97;4.88;;;;;;;;;;5021258;28;20045;-54
2023/08/03 00:59:25;;;;;;;8.23;4.90;;;;;;;;;;5024616;28;20052;-55
2023/08/03 01:02:19;;;;;;;12.25;4.30;;;;;;;;;;5026982;28;20421;-55
2023/08/03 01:05:06;;;;;;;12.25;4.13;;;;;;;;;;5028182;28;20049;-47
2023/08/03 01:08:00;;;;;;;6.78;4.57;;;;;;;;;;5025996;28;20053;-49
2023/08/03 01:10:47;;;;;;;8.40;5.07;;;;;;;;;;5031260;28;20037;-61
2023/08/03 01:13:41;;;;;;;9.80;4.93;;;;;;;;;;5026851;28;20057;-61
2023/08/03 01:16:28;;;;;;;6.47;5.00;;;;;;;;;;5028081;28;20488;-61
2023/08/03 01:19:22;;;;;;;7.88;4.88;;;;;;;;;;5028706;28;20053;-61
2023/08/03 01:22:10;;;;;;;7.88;4.60;;;;;;;;;;5024926;28;20128;-61
2023/08/03 01:25:04;;;;;;;10.73;5.30;;;;;;;;;;5030277;28;20089;-60
2023/08/03 01:27:51;;;;;;;14.88;5.22;;;;;;;;;;5025036;28;20083;-61
2023/08/03 01:30:45;;;;;;;11.35;5.30;;;;;;;;;;5026197;28;20046;-60
2023/08/03 01:33:32;;;;;;;6.88;5.18;;;;;;;;;;5028906;28;20059;-60
2023/08/03 01:36:26;;;;;;;7.88;5.05;;;;;;;;;;5025016;28;20115;-60
2023/08/03 01:39:13;;;;;;;5.88;4.40;;;;;;;;;;5028548;28;20049;-56
2023/08/03 01:42:08;;;;;;;8.77;4.68;;;;;;;;;;5023983;28;20394;-52
2023/08/03 01:44:54;;;;;;;6.50;5.20;;;;;;;;;;5025585;28;20492;-54
2023/08/03 01:47:48;;;;;;;7.05;4.97;;;;;;;;;;4981957;28;20471;-55
2023/08/03 01:50:42;;;;;;;10.90;5.15;;;;;;;;;;4985677;28;20073;-56
2023/08/03 01:53:29;;;;;;;11.02;5.60;;;;;;;;;;4986053;28;20047;-55
2023/08/03 01:56:23;;;;;;;11.60;5.47;;;;;;;;;;4983462;28;20088;-56
2023/08/03 01:59:10;;;;;;;6.53;5.85;;;;;;;;;;4985057;28;20117;-49
2023/08/03 02:02:04;;;;;;;7.93;5.70;;;;;;;;;;4985435;28;20058;-51
2023/08/03 02:04:58;;;;;;;7.35;5.15;;;;;;;;;;4985657;28;20052;-49
2023/08/03 02:07:53;;;;;;;12.75;5.43;;;;;;;;;;4984555;28;20093;-52
2023/08/03 02:10:40;;;;;;;11.13;6.03;;;;;;;;;;4984975;28;20517;-61
2023/08/03 02:13:27;;;;;;;8.60;5.13;;;;;;;;;;4983867;28;20056;-61
2023/08/03 02:16:22;;;;;;;10.48;5.28;;;;;;;;;;4981193;28;20556;-61
2023/08/03 02:19:09;;;;;;;9.40;5.53;;;;;;;;;;4982403;28;20042;-61
2023/08/03 02:22:04;;;;;;;7.03;5.28;;;;;;;;;;4984013;28;20495;-60
2023/08/03 02:24:52;;;;;;;9.77;5.20;;;;;;;;;;4985504;28;20100;-61
2023/08/03 02:27:45;;;;;;;8.45;5.20;;;;;;;;;;4984421;28;20421;-53
2023/08/03 02:30:32;;;;;;;10.35;5.25;;;;;;;;;;4984193;28;20054;-52
2023/08/03 02:33:27;;;;;;;18.50;5.53;;;;;;;;;;4983690;28;20109;-56
2023/08/03 02:36:13;;;;;;;7.60;5.38;;;;;;;;;;4985761;28;20054;-55
2023/08/03 02:39:07;;;;;;;13.10;5.25;;;;;;;;;;4982691;28;20105;-55
2023/08/03 02:41:55;;;;;;;8.15;5.38;;;;;;;;;;4980543;28;20042;-53
2023/08/03 02:44:48;;;;;;;12.98;5.13;;;;;;;;;;4981073;28;20077;-52
2023/08/03 02:47:42;;;;;;;12.27;5.63;;;;;;;;;;4988987;28;20138;-52
2023/08/03 02:50:36;;;;;;;15.95;5.53;;;;;;;;;;4989852;28;20081;-53
2023/08/03 02:53:30;;;;;;;8.70;5.53;;;;;;;;;;4987485;28;20050;-52
2023/08/03 02:56:17;;;;;;;8.10;5.53;;;;;;;;;;4983976;28;20557;-59
2023/08/03 02:59:18;;;;;;;14.82;5.40;;;;;;;;;;4983461;28;20056;-59
2023/08/03 03:02:05;;;;;;;8.70;5.50;;;;;;;;;;4990475;28;20054;-59
2023/08/03 03:04:59;;;;;;;11.15;5.20;;;;;;;;;;4988630;28;20433;-54
2023/08/03 03:07:46;;;;;;;12.68;5.50;;;;;;;;;;4987012;28;20138;-57
2023/08/03 03:10:40;;;;;;;8.15;5.30;;;;;;;;;;4989451;28;20975;-56
2023/08/03 03:13:28;;;;;;;14.32;5.63;;;;;;;;;;4988657;28;20129;-58
2023/08/03 03:16:25;;;;;;;9.07;5.70;;;;;;;;;;4982376;28;20038;-58
2023/08/03 03:19:08;;;;;;;9.50;5.75;;;;;;;;;;4987067;28;20646;-57
2023/08/03 03:22:02;;;;;;;12.40;6.10;;;;;;;;;;4989079;28;20100;-56
2023/08/03 03:24:56;;;;;;;13.13;6.22;;;;;;;;;;4985902;28;20097;-58
2023/08/03 03:27:50;;;;;;;10.13;5.68;;;;;;;;;;4989186;28;20054;-57
2023/08/03 03:30:44;;;;;;;8.82;6.32;;;;;;;;;;4989656;28;20095;-58
2023/08/03 03:33:32;;;;;;;12.68;6.50;;;;;;;;;;4987239;28;20058;-60
2023/08/03 03:36:25;;;;;;;11.55;6.30;;;;;;;;;;4989037;28;20141;-57
2023/08/03 03:39:12;;;;;;;11.40;6.18;;;;;;;;;;4987060;28;20097;-58
2023/08/03 03:42:06;;;;;;;9.85;6.55;;;;;;;;;;4984918;28;20042;-58
2023/08/03 03:44:53;;;;;;;12.18;5.82;;;;;;;;;;4989358;28;20092;-57
2023/08/03 03:47:54;;;;;;;7.50;6.18;;;;;;;;;;4977288;28;20058;-58
2023/08/03 03:50:41;;;;;;;8.70;6.35;;;;;;;;;;4987189;28;20390;-57
2023/08/03 03:53:35;;;;;;;10.30;6.63;;;;;;;;;;4988982;28;20112;-53
2023/08/03 03:56:22;;;;;;;11.75;6.28;;;;;;;;;;4986236;28;20493;-49
2023/08/03 03:59:16;;;;;;;14.63;6.72;;;;;;;;;;4987254;28;20120;-54
2023/08/03 04:02:03;;;;;;;10.15;6.38;;;;;;;;;;4984596;28;20059;-51
2023/08/03 04:04:57;;;;;;;11.60;6.40;;;;;;;;;;4987688;28;20054;-60
2023/08/03 04:07:44;;;;;;;13.68;5.85;;;;;;;;;;4985820;28;20053;-60
2023/08/03 04:10:38;;;;;;;14.38;5.78;;;;;;;;;;4980244;28;20051;-60
2023/08/03 04:13:25;;;;;;;11.75;6.22;;;;;;;;;;4987386;28;20124;-61
2023/08/03 04:16:22;;;;;;;13.52;5.75;;;;;;;;;;4985300;28;20046;-61
2023/08/03 04:19:10;;;;;;;6.68;5.45;;;;;;;;;;4985712;28;20598;-61
2023/08/03 04:22:03;;;;;;;6.43;5.18;;;;;;;;;;4985301;28;20046;-51
2023/08/03 04:24:57;;;;;;;12.95;5.40;;;;;;;;;;4988901;28;20129;-55
2023/08/03 04:27:51;;;;;;;12.57;5.28;;;;;;;;;;4983999;28;20504;-54
2023/08/03 04:30:45;;;;;;;10.95;5.75;;;;;;;;;;4982382;28;20046;-59
2023/08/03 04:33:32;;;;;;;8.15;5.28;;;;;;;;;;4980057;28;20128;-69
2023/08/03 04:36:26;;;;;;;8.40;4.70;;;;;;;;;;4986941;28;20065;-69
2023/08/03 04:39:13;;;;;;;11.57;4.75;;;;;;;;;;4987548;28;20490;-70
2023/08/03 04:42:07;;;;;;;7.05;5.15;;;;;;;;;;4983440;28;20039;-71
2023/08/03 04:45:01;;;;;;;11.18;5.00;;;;;;;;;;4985264;28;20046;-70
2023/08/03 04:47:58;;;;;;;6.82;4.53;;;;;;;;;;5029074;28;20053;-71
2023/08/03 04:50:52;;;;;;;13.27;4.65;;;;;;;;;;5027699;28;20041;-70
2023/08/03 04:53:41;;;;;;;11.75;4.65;;;;;;;;;;5028125;28;20054;-70
2023/08/03 04:56:36;;;;;;;8.63;4.72;;;;;;;;;;5029495;28;20046;-69
2023/08/03 04:59:22;;;;;;;7.93;4.35;;;;;;;;;;5028995;28;20521;-58
2023/08/03 05:02:16;;;;;;;8.85;4.88;;;;;;;;;;5025379;28;20462;-71
2023/08/03 05:05:03;;;;;;;11.07;4.40;;;;;;;;;;5025335;28;20073;-70
2023/08/03 05:07:57;;;;;;;9.07;4.28;;;;;;;;;;5030417;28;20045;-67
2023/08/03 05:10:44;;;;;;;11.18;4.05;;;;;;;;;;5026070;28;20053;-68
2023/08/03 05:13:40;;;;;;;9.43;4.10;;;;;;;;;;5024209;28;20038;-69
2023/08/03 05:16:26;;;;;;;8.32;3.80;;;;;;;;;;5023909;28;20155;-57
2023/08/03 05:19:19;;;;;;;5.18;3.50;;;;;;;;;;5027930;28;20492;-57
2023/08/03 05:22:06;;;;;;;9.10;3.63;;;;;;;;;;5030166;28;20790;-56
2023/08/03 05:25:00;;;;;;;6.85;3.53;;;;;;;;;;5029744;28;20119;-57
2023/08/03 05:27:47;;;;;;;12.60;3.72;;;;;;;;;;5025244;28;20045;-56
2023/08/03 05:30:44;;;;;;;16.90;3.45;;;;;;;;;;5023320;28;20053;-51
2023/08/03 05:33:33;;;;;;;7.10;3.28;;;;;;;;;;5026978;28;20137;-49
2023/08/03 05:36:27;;;;;;;9.68;3.63;;;;;;;;;;5027396;28;20130;-53
2023/08/03 05:39:25;;;;;;;7.03;3.35;;;;;;;;;;5030925;28;20575;-54
2023/08/03 05:42:18;;;;;;;6.45;3.17;;;;;;;;;;5027460;28;20142;-51
2023/08/03 05:45:10;;;;;;;9.15;2.85;;;;;;;;;;5026345;28;20095;-71
2023/08/03 05:48:13;;;;;;;6.97;3.13;;;;;;;;;;5027160;28;20049;-72
2023/08/03 05:51:00;;;;;;;9.35;3.17;;;;;;;;;;5024918;28;20505;-71
2023/08/03 05:53:55;;;;;;;7.90;3.15;;;;;;;;;;5026437;28;20087;-70
2023/08/03 05:56:42;;;;;;;4.87;3.00;;;;;;;;;;5027862;28;20053;-56
2023/08/03 05:59:36;;;;;;;6.18;2.85;;;;;;;;;;5028628;28;20049;-59
2023/08/03 06:02:44;;;;;;;6.43;2.88;;;;;;;;;;5022878;28;20402;-58
2023/08/03 06:05:44;;;;;;;7.50;3.22;;;;;;;;;;5025116;28;20045;-58
2023/08/03 06:08:33;;;;;;;5.95;3.17;;;;;;;;;;5026898;28;20060;-58
2023/08/03 06:11:27;;;;;;;7.38;3.33;;;;;;;;;;5018129;28;20076;-57
2023/08/03 06:14:16;;;;;;;6.88;3.15;;;;;;;;;;5024463;28;20045;-62
2023/08/03 06:17:10;;;;;;;7.25;3.53;;;;;;;;;;5026532;28;20041;-61
2023/08/03 06:19:57;;;;;;;3.17;2.88;;;;;;;;;;5022986;28;20494;-61
2023/08/03 06:22:51;;;;;;;8.75;2.97;;;;;;;;;;5021385;28;20463;-61
2023/08/03 06:25:46;;;;;;;11.88;3.58;;;;;;;;;;5023824;28;20064;-70
2023/08/03 06:28:40;;;;;;;8.52;2.83;;;;;;;;;;5022558;28;20569;-53
2023/08/03 06:31:32;;;;;;;5.05;3.10;;;;;;;;;;5021676;28;20072;-49
2023/08/03 06:34:25;;;;;;;7.45;3.10;;;;;;;;;;5021023;28;20045;-49
2023/08/03 06:37:12;;;;;;;7.00;2.95;;;;;;;;;;5020477;28;20096;-47
2023/08/03 06:40:07;;;;;;;5.95;2.92;;;;;;;;;;5023896;28;20050;-50
2023/08/03 06:42:54;;;;;;;9.75;3.10;;;;;;;;;;5022106;28;20045;-61
2023/08/03 06:45:54;;;;;;;9.55;2.72;;;;;;;;;;5022030;28;20049;-61
2023/08/03 06:48:49;;;;;;;10.70;3.20;;;;;;;;;;5019923;28;20045;-61
2023/08/03 06:51:42;;;;;;;8.70;2.88;;;;;;;;;;5024645;28;20061;-58
2023/08/03 06:54:30;;;;;;;6.35;2.58;;;;;;;;;;5020530;28;20045;-61
2023/08/03 06:57:23;;;;;;;8.52;2.90;;;;;;;;;;5021488;28;20099;-52
2023/08/03 07:00:11;;;;;;;7.90;2.55;;;;;;;;;;5022323;28;20488;-51
2023/08/03 07:03:04;;;;;;;7.80;3.08;;;;;;;;;;5025836;28;20509;-53
2023/08/03 07:05:51;;;;;;;10.82;3.28;;;;;;;;;;5026037;28;20076;-48
2023/08/03 07:08:45;;;;;;;7.60;2.88;;;;;;;;;;5023485;28;20081;-51
2023/08/03 07:11:33;;;;;;;4.90;2.90;;;;;;;;;;5022754;28;20130;-58
2023/08/03 07:14:33;;;;;;;5.75;2.67;;;;;;;;;;5028652;28;20526;-57
2023/08/03 07:17:21;;;;;;;4.65;2.65;;;;;;;;;;5025116;28;20041;-58
2023/08/03 07:20:15;;;;;;;10.23;3.13;;;;;;;;;;5024701;28;20056;-61
2023/08/03 07:23:02;;;;;;;5.80;2.65;;;;;;;;;;5022156;28;20115;-57
2023/08/03 07:25:58;;;;;;;11.48;2.97;;;;;;;;;;5023391;28;20131;-53
2023/08/03 07:28:46;;;;;;;7.82;2.80;;;;;;;;;;5018751;28;20135;-54
2023/08/03 07:31:39;;;;;;;10.30;2.63;;;;;;;;;;5023134;28;20100;-53
2023/08/03 07:34:26;;;;;;;6.43;2.55;;;;;;;;;;5022436;28;20052;-54
2023/08/03 07:37:20;;;;;;;8.30;2.90;;;;;;;;;;5024803;28;20404;-53
2023/08/03 07:40:08;;;;;;;4.20;2.55;;;;;;;;;;5023893;28;20057;-57
2023/08/03 07:43:01;;;;;;;5.78;2.70;;;;;;;;;;5021528;28;20512;-57
2023/08/03 07:45:49;;;;;;;4.63;2.67;;;;;;;;;;5014024;28;20111;-57
2023/08/03 07:48:49;;;;;;;5.82;2.95;;;;;;;;;;5019813;28;20512;-52
2023/08/03 07:51:36;;;;;;;8.60;2.78;;;;;;;;;;5026581;28;20106;-57
2023/08/03 07:54:31;;;;;;;8.45;2.90;;;;;;;;;;5025573;28;21927;-59
2023/08/03 07:57:18;;;;;;;7.10;3.03;;;;;;;;;;5019190;28;20103;-59
2023/08/03 08:00:12;;;;;;;9.48;3.55;;;;;;;;;;5024834;28;20049;-59
2023/08/03 08:02:59;;;;;;;6.88;2.60;;;;;;;;;;5021126;28;20071;-59
2023/08/03 08:05:52;;;;;;;5.47;3.00;;;;;;;;;;5020744;28;20476;-59
2023/08/03 08:08:40;;;;;;;4.57;2.63;;;;;;;;;;5022806;28;20060;-56
2023/08/03 08:11:33;;;;;;;10.30;2.97;;;;;;;;;;5023544;28;20488;-55
2023/08/03 08:14:21;;;;;;;9.95;3.20;;;;;;;;;;5025245;28;20067;-55
2023/08/03 08:17:14;;;;;;;5.20;2.70;;;;;;;;;;5020480;28;20107;-57
2023/08/03 08:20:02;;;;;;;4.95;2.50;;;;;;;;;;5025458;28;20516;-61
2023/08/03 08:23:17;;;;;;;6.28;2.72;;;;;;;;;;5022342;28;20055;-59
2023/08/03 08:26:18;;;;;;;7.40;2.88;;;;;;;;;;5022581;28;20064;-58
2023/08/03 08:29:11;;;;;;;6.97;3.25;;;;;;;;;;5019888;28;20068;-58
2023/08/03 08:31:59;;;;;;;9.23;2.60;;;;;;;;;;5021553;28;20107;-58
2023/08/03 08:34:52;;;;;;;8.63;2.83;;;;;;;;;;5022116;28;20140;-58
2023/08/03 08:37:39;;;;;;;4.85;2.38;;;;;;;;;;5021902;28;20500;-62
2023/08/03 08:40:37;;;;;;;4.53;2.42;;;;;;;;;;5019760;28;20041;-62
2023/08/03 10:03:12;;;;;;;7.68;4.85;;;;;;;;;;1070564;22;21102;-59
2023/08/03 10:05:56;;;;;;;9.00;5.28;;;;;;;;;;5043492;28;20049;-59
2023/08/03 10:08:42;;;;;;;7.95;5.47;;;;;;;;;;5042403;28;20061;-59
2023/08/03 10:11:16;;;;;;;8.27;6.10;;;;;;;;;;5042628;28;20053;-59
2023/08/03 10:13:47;;;;;;;7.10;5.10;;;;;;;;;;5039406;28;20766;-59
2023/08/03 10:16:21;;;;;;;8.77;5.35;;;;;;;;;;5043867;28;20103;-59
2023/08/03 10:18:49;;;;;;;12.15;7.18;;;;;;;;;;5042706;28;20712;-67
2023/08/03 10:21:26;;;;;;;11.57;6.65;;;;;;;;;;5043396;28;20068;-62
2023/08/03 10:24:09;;;;;;;7.60;4.32;;;;;;;;;;5046644;28;20108;-62
2023/08/03 10:26:43;;;;;;;8.15;4.28;;;;;;;;;;5045511;28;20140;-62
2023/08/03 10:29:11;;;;;;;5.88;3.97;;;;;;;;;;5028828;28;20051;-62
2023/08/03 10:31:54;;;;;;;6.55;4.30;;;;;;;;;;5043399;28;20144;-64
2023/08/03 10:34:37;;;;;;;8.73;4.68;;;;;;;;;;5047483;22;20073;-60
2023/08/03 10:37:14;;;;;;;8.20;4.30;;;;;;;;;;4997624;28;20050;-60
2023/08/03 10:39:48;;;;;;;5.00;4.40;;;;;;;;;;4996614;28;20094;-59
2023/08/03 10:42:35;;;;;;;12.48;5.30;;;;;;;;;;4996514;28;20139;-59
2023/08/03 10:45:30;;;;;;;6.50;4.65;;;;;;;;;;4998002;28;20085;-59
2023/08/03 10:48:30;;;;;;;10.45;6.60;;;;;;;;;;5002772;28;20092;-48
2023/08/03 10:51:23;;;;;;;7.85;5.05;;;;;;;;;;5003404;28;20050;-52
2023/08/03 10:54:11;;;;;;;5.40;4.22;;;;;;;;;;4995751;28;20156;-55
2023/08/03 10:57:06;;;;;;;12.35;5.68;;;;;;;;;;4996162;28;20106;-51
2023/08/03 10:59:54;;;;;;;13.38;5.30;;;;;;;;;;4995557;28;20050;-55
2023/08/03 11:02:48;;;;;;;6.68;4.25;;;;;;;;;;4996327;28;20050;-55
2023/08/03 11:05:36;;;;;;;6.82;4.50;;;;;;;;;;4998957;28;20057;-56
2023/08/03 11:08:29;;;;;;;7.68;4.78;;;;;;;;;;4998660;28;20446;-55
2023/08/03 11:11:22;;;;;;;9.68;5.20;;;;;;;;;;4993112;28;20598;-59
2023/08/03 11:14:10;;;;;;;14.60;5.18;;;;;;;;;;4998570;28;20054;-58
2023/08/03 11:16:58;;;;;;;8.52;5.22;;;;;;;;;;4999723;28;20453;-58
2023/08/03 11:19:52;;;;;;;9.77;5.57;;;;;;;;;;4994147;28;20050;-59
2023/08/03 11:22:39;;;;;;;8.93;5.10;;;;;;;;;;4995063;28;20056;-59
2023/08/03 11:25:33;;;;;;;7.40;4.88;;;;;;;;;;4992704;28;20058;-66
2023/08/03 11:28:21;;;;;;;7.45;4.97;;;;;;;;;;4998754;28;20053;-67
2023/08/03 11:31:18;;;;;;;5.35;3.80;;;;;;;;;;4998317;28;20502;-67
2023/08/03 11:34:06;;;;;;;6.10;4.13;;;;;;;;;;5003665;28;20436;-66
2023/08/03 11:37:07;;;;;;;5.70;3.70;;;;;;;;;;4996958;28;20125;-54
2023/08/03 11:39:53;;;;;;;11.10;4.50;;;;;;;;;;4993485;28;20054;-68
2023/08/03 11:42:47;;;;;;;6.68;4.05;;;;;;;;;;4995099;28;20057;-67
2023/08/03 11:45:35;;;;;;;8.82;4.00;;;;;;;;;;4995929;28;20515;-67
2023/08/03 11:48:30;;;;;;;5.75;3.97;;;;;;;;;;4999636;28;20057;-67
2023/08/03 11:51:17;;;;;;;;;;;;;;;;;;4999098;28;20057;-67
2023/08/03 11:53:50;;;;;;;9.38;4.03;;;;;;;;;;4998716;28;19922;-53
2023/08/03 11:56:24;;;;;;;11.20;3.85;;;;;;;;;;4998536;28;20518;-52
2023/08/03 11:59:10;;;;;;;6.65;3.45;;;;;;;;;;4992391;28;20060;-55
2023/08/03 12:01:45;;;;;;;8.20;3.50;;;;;;;;;;4995163;28;20057;-54
2023/08/03 12:04:13;;;;;;;6.15;3.42;;;;;;;;;;4987803;28;20113;-52
2023/08/03 12:06:52;;;;;;;6.22;3.85;;;;;;;;;;4994283;28;20053;-71
2023/08/03 12:09:20;;;;;;;6.32;3.20;;;;;;;;;;4998607;28;20056;-72
2023/08/03 12:12:01;;;;;;;8.90;3.63;;;;;;;;;;4995781;28;20066;-71
2023/08/03 12:14:29;;;;;;;5.78;3.33;;;;;;;;;;4975736;28;20073;-73
2023/08/03 12:17:03;;;;;;;4.90;3.35;;;;;;;;;;4995644;28;20104;-72
2023/08/03 12:19:33;;;;;;;7.82;3.83;;;;;;;;;;4991558;28;20498;-73
2023/08/03 12:22:01;;;;;;;6.40;3.47;;;;;;;;;;4996022;28;20109;-47
2023/08/03 12:24:38;;;;;;;7.88;3.17;;;;;;;;;;4994116;28;20648;-49
2023/08/03 12:27:05;;;;;;;;;;;;;;;;;;4990578;28;22559;-52
2023/08/03 12:29:39;;;;;;;6.05;3.55;;;;;;;;;;4990162;28;19929;-50
2023/08/03 12:32:08;;;;;;;6.72;3.20;;;;;;;;;;4995698;28;20095;-58
2023/08/03 12:34:55;;;;;;;6.10;3.25;;;;;;;;;;4994412;28;20062;-53
2023/08/03 12:37:49;;;;;;;5.80;3.17;;;;;;;;;;4995889;28;20050;-53
2023/08/03 12:40:43;;;;;;;10.13;3.47;;;;;;;;;;4994921;28;20459;-50
2023/08/03 12:43:32;;;;;;;7.60;3.25;;;;;;;;;;4990975;28;20427;-53
2023/08/03 12:46:25;;;;;;;5.20;3.13;;;;;;;;;;4990990;28;20061;-50
2023/08/03 12:49:15;;;;;;;7.03;3.33;;;;;;;;;;4998025;28;20148;-54
2023/08/03 12:52:07;;;;;;;8.35;2.80;;;;;;;;;;5000853;28;20286;-60
2023/08/03 12:54:55;;;;;;;7.93;2.80;;;;;;;;;;4996595;28;20062;-59
2023/08/03 12:57:49;;;;;;;5.32;2.85;;;;;;;;;;5002432;28;20420;-59
2023/08/03 13:00:36;;;;;;;5.20;2.72;;;;;;;;;;5003964;28;20057;-67
2023/08/03 13:03:29;;;;;;;6.68;2.70;;;;;;;;;;5000634;28;20082;-58
2023/08/03 13:06:23;;;;;;;10.95;2.97;;;;;;;;;;5007503;28;20054;-58
2023/08/03 13:09:11;;;;;;;9.63;2.80;;;;;;;;;;5000505;28;20058;-58
2023/08/03 13:12:05;;;;;;;8.60;3.20;;;;;;;;;;5001633;28;20054;-59
2023/08/03 13:14:55;;;;;;;8.95;2.65;;;;;;;;;;5006170;28;20407;-59
2023/08/03 13:17:49;;;;;;;6.38;3.10;;;;;;;;;;4995083;28;20108;-59
2023/08/03 13:20:43;;;;;;;7.65;2.67;;;;;;;;;;4999652;28;20516;-69
2023/08/03 13:23:31;;;;;;;5.05;2.78;;;;;;;;;;4995997;28;20523;-69
2023/08/03 13:26:25;;;;;;;5.20;2.65;;;;;;;;;;5000248;28;20128;-69
2023/08/03 13:29:17;;;;;;;6.10;3.15;;;;;;;;;;4999716;28;20054;-49
2023/08/03 13:32:10;;;;;;;7.13;3.50;;;;;;;;;;4998813;28;20097;-56
2023/08/03 13:35:03;;;;;;;5.57;2.88;;;;;;;;;;4996874;28;20085;-56
2023/08/03 13:38:03;;;;;;;9.32;3.80;;;;;;;;;;4996820;28;20064;-57
2023/08/03 13:40:50;;;;;;;8.32;3.95;;;;;;;;;;4998603;28;20590;-53
2023/08/03 13:43:45;;;;;;;7.25;3.30;;;;;;;;;;4994158;28;20561;-53
2023/08/03 13:46:32;;;;;;;10.13;3.80;;;;;;;;;;5001926;28;20140;-57
2023/08/03 13:49:26;;;;;;;9.18;3.70;;;;;;;;;;4995375;28;20554;-70
2023/08/03 13:52:13;;;;;;;9.02;3.47;;;;;;;;;;4999288;28;20058;-73
2023/08/03 13:55:07;;;;;;;11.02;4.15;;;;;;;;;;4997566;28;20117;-72
2023/08/03 13:58:01;;;;;;;9.02;3.40;;;;;;;;;;4994527;28;20148;-56
2023/08/03 14:00:50;;;;;;;7.05;3.15;;;;;;;;;;5001702;28;20613;-57
2023/08/03 14:03:45;;;;;;;8.00;3.42;;;;;;;;;;4996109;28;20065;-57
2023/08/03 14:06:33;;;;;;;7.28;3.42;;;;;;;;;;4995282;28;20058;-57
2023/08/03 14:09:30;;;;;;;8.35;3.45;;;;;;;;;;4991647;28;20063;-58
2023/08/03 14:12:38;;;;;;;7.25;3.13;;;;;;;;;;4997047;28;20050;-57
2023/08/03 14:15:31;;;;;;;5.22;3.00;;;;;;;;;;4996269;28;20408;-53
2023/08/03 14:18:28;;;;;;;7.68;2.92;;;;;;;;;;4994525;28;20059;-51
2023/08/03 14:21:16;;;;;;;6.30;2.85;;;;;;;;;;4998480;28;20511;-52
2023/08/03 14:24:12;;;;;;;5.90;3.03;;;;;;;;;;4997175;28;20531;-52
2023/08/03 14:26:59;;;;;;;5.43;2.92;;;;;;;;;;4995814;28;20551;-67
2023/08/03 14:29:54;;;;;;;4.85;2.45;;;;;;;;;;4997100;28;20132;-57
2023/08/03 14:32:44;;;;;;;6.57;2.97;;;;;;;;;;4996922;28;20136;-57
2023/08/03 14:35:45;;;;;;;9.93;3.30;;;;;;;;;;4996362;28;20049;-58
2023/08/03 14:38:32;;;;;;;4.55;2.85;;;;;;;;;;4986471;28;20061;-58
2023/08/03 14:41:27;;;;;;;5.30;2.70;;;;;;;;;;4991413;28;20130;-57
2023/08/03 14:44:15;;;;;;;5.57;2.90;;;;;;;;;;5002981;28;20042;-77
2023/08/03 14:47:17;;;;;;;7.00;2.90;;;;;;;;;;4996420;28;20427;-77
2023/08/03 14:50:05;;;;;;;5.75;2.95;;;;;;;;;;4999300;28;20454;-76
2023/08/03 14:52:59;;;;;;;7.90;2.70;;;;;;;;;;4993164;28;20513;-78
2023/08/03 14:55:46;;;;;;;10.13;2.60;;;;;;;;;;4987580;28;20116;-52
2023/08/03 14:58:43;;;;;;;4.28;2.97;;;;;;;;;;4998906;28;20435;-57
2023/08/03 15:01:30;;;;;;;3.42;2.58;;;;;;;;;;4993102;28;20054;-58
2023/08/03 15:04:23;;;;;;;6.63;2.67;;;;;;;;;;4991999;28;20647;-58
2023/08/03 15:07:18;;;;;;;4.55;2.70;;;;;;;;;;4994395;28;20605;-58
2023/08/03 15:10:06;;;;;;;6.63;2.63;;;;;;;;;;5000191;28;20049;-58
2023/08/03 15:12:59;;;;;;;8.57;2.60;;;;;;;;;;4990054;28;20443;-55
2023/08/03 15:15:46;;;;;;;5.95;3.08;;;;;;;;;;4997593;28;20786;-51
2023/08/03 15:18:43;;;;;;;4.30;2.55;;;;;;;;;;4997366;28;20117;-52
2023/08/03 15:21:34;;;;;;;7.95;3.42;;;;;;;;;;4990791;28;20076;-54
2023/08/03 15:24:28;;;;;;;7.57;2.70;;;;;;;;;;4993741;28;20112;-59
2023/08/03 15:27:23;;;;;;;4.90;2.63;;;;;;;;;;5000163;28;20058;-59
2023/08/03 15:30:25;;;;;;;8.73;2.70;;;;;;;;;;4991589;28;20467;-59
2023/08/03 15:33:22;;;;;;;3.72;2.30;;;;;;;;;;4994474;28;20596;-59
2023/08/03 15:36:17;;;;;;;6.88;2.30;;;;;;;;;;4994950;28;20511;-59
2023/08/03 15:39:13;;;;;;;4.35;2.50;;;;;;;;;;4997149;28;20050;-59
2023/08/03 15:42:02;;;;;;;5.05;2.33;;;;;;;;;;4997847;28;20141;-59
2023/08/03 15:45:01;;;;;;;7.28;2.30;;;;;;;;;;4995162;28;20526;-59
2023/08/03 15:47:51;;;;;;;6.65;2.10;;;;;;;;;;4991668;28;20061;-58
2023/08/03 15:51:05;;;;;;;4.40;2.25;;;;;;;;;;4988048;28;20455;-59
2023/08/03 15:53:58;;;;;;;2.97;2.10;;;;;;;;;;4990119;28;20141;-65
2023/08/03 15:56:56;;;;;;;5.40;2.15;;;;;;;;;;4990921;28;20137;-55
2023/08/03 15:59:44;;;;;;;2.92;2.05;;;;;;;;;;4995125;28;20049;-54
2023/08/03 16:02:37;;;;;;;4.80;2.00;;;;;;;;;;4996429;28;20478;-55
2023/08/03 16:05:25;;;;;;;2.63;1.90;;;;;;;;;;5000877;28;20092;-54
2023/08/03 16:08:18;;;;;;;3.22;2.00;;;;;;;;;;4989384;28;20058;-54
2023/08/03 16:11:06;;;;;;;3.13;1.98;;;;;;;;;;4992801;28;20121;-52
2023/08/03 16:14:19;;;;;;;4.03;1.95;;;;;;;;;;4996161;28;20057;-52
2023/08/03 16:17:06;;;;;;;7.43;2.17;;;;;;;;;;4994148;28;20097;-52
2023/08/03 16:20:01;;;;;;;6.10;2.17;;;;;;;;;;4995899;28;20046;-72
2023/08/03 16:22:48;;;;;;;4.18;2.22;;;;;;;;;;4995746;28;20045;-51
2023/08/03 16:25:41;;;;;;;6.75;2.50;;;;;;;;;;4994430;28;20054;-53
2023/08/03 16:28:30;;;;;;;6.32;2.10;;;;;;;;;;4995167;28;20049;-50
2023/08/03 16:31:23;;;;;;;7.18;2.45;;;;;;;;;;4993661;28;20085;-51
2023/08/03 16:34:20;;;;;;;8.93;1.88;;;;;;;;;;4997335;28;20050;-53
2023/08/03 16:37:16;;;;;;;8.50;2.67;;;;;;;;;;5001489;28;20085;-52
2023/08/03 16:40:11;;;;;;;3.70;1.92;;;;;;;;;;4997448;28;20157;-58
2023/08/03 16:42:58;;;;;;;6.05;1.90;;;;;;;;;;4994223;28;20457;-58
2023/08/03 16:45:56;;;;;;;4.60;2.45;;;;;;;;;;4997537;28;20065;-58
2023/08/03 16:48:39;;;;;;;3.00;1.80;;;;;;;;;;4997271;28;20054;-58
2023/08/03 16:51:32;;;;;;;6.13;1.60;;;;;;;;;;4995239;28;20046;-52
2023/08/03 16:54:20;;;;;;;2.08;1.58;;;;;;;;;;5003309;28;20196;-53
2023/08/03 16:57:16;;;;;;;2.28;1.52;;;;;;;;;;4999808;28;20046;-55
2023/08/03 17:00:02;;;;;;;3.22;2.13;;;;;;;;;;4992052;28;20074;-54
2023/08/03 17:02:56;;;;;;;3.58;1.52;;;;;;;;;;4998779;28;20049;-55
2023/08/03 17:05:43;;;;;;;4.07;1.77;;;;;;;;;;4994210;28;20136;-55
2023/08/03 17:08:37;;;;;;;2.90;1.60;;;;;;;;;;4992536;28;20108;-53
2023/08/03 17:11:24;;;;;;;2.97;1.73;;;;;;;;;;4996741;28;20435;-48
2023/08/03 17:14:22;;;;;;;4.72;1.77;;;;;;;;;;4994568;28;20070;-52
2023/08/03 17:17:05;;;;;;;5.28;1.88;;;;;;;;;;4991835;28;20626;-74
2023/08/03 17:20:00;;;;;;;8.75;2.20;;;;;;;;;;4996021;28;20050;-57
2023/08/03 17:22:47;;;;;;;2.17;1.70;;;;;;;;;;4998976;28;20050;-56
2023/08/03 17:25:41;;;;;;;6.15;1.95;;;;;;;;;;5000471;28;20585;-56
2023/08/03 17:28:31;;;;;;;3.55;1.85;;;;;;;;;;4997877;28;20058;-57
2023/08/03 17:31:22;;;;;;;2.28;1.85;;;;;;;;;;4996464;28;20046;-57
2023/08/03 17:34:09;;;;;;;4.35;1.80;;;;;;;;;;4997381;28;20566;-57
2023/08/03 17:37:09;;;;;;;7.50;2.10;;;;;;;;;;4989684;28;20121;-52
2023/08/03 17:40:03;;;;;;;9.35;2.60;;;;;;;;;;4991210;28;20148;-49
2023/08/03 17:42:57;;;;;;;5.05;2.20;;;;;;;;;;4999917;28;20053;-54
2023/08/03 17:45:45;;;;;;;3.53;2.35;;;;;;;;;;5001001;28;20054;-54
2023/08/03 17:48:39;;;;;;;3.58;2.15;;;;;;;;;;4997929;28;20056;-56
2023/08/03 17:51:26;;;;;;;7.78;2.60;;;;;;;;;;4998041;28;20875;-59
2023/08/03 17:54:26;;;;;;;5.10;1.67;;;;;;;;;;4995665;28;20054;-58
2023/08/03 17:57:13;;;;;;;5.25;2.25;;;;;;;;;;4996253;28;20050;-59
2023/08/03 18:00:08;;;;;;;3.50;2.08;;;;;;;;;;5003721;28;20582;-57
2023/08/03 18:02:55;;;;;;;5.13;2.50;;;;;;;;;;4993772;28;20515;-58
2023/08/03 18:05:50;;;;;;;3.63;1.90;;;;;;;;;;4998894;28;20434;-52
2023/08/03 18:08:37;;;;;;;5.45;2.63;;;;;;;;;;4995572;28;20446;-52
2023/08/03 18:11:31;;;;;;;3.17;2.10;;;;;;;;;;4997784;28;20130;-51
2023/08/03 18:14:18;;;;;;;6.32;2.10;;;;;;;;;;4999782;28;20081;-54
2023/08/03 18:17:13;;;;;;;7.70;2.25;;;;;;;;;;4999456;28;20061;-66
2023/08/03 18:19:59;;;;;;;5.97;2.10;;;;;;;;;;4997253;28;20062;-66